Time;durP1;ratioP1;P1;durP2;ratioP2;P2;SDS_P1;SDS_P2;PMS_P1;PMS_P2;Temp;Humidity;BMP_temperature;BMP_pressure;BME280_temperature;BME280_humidity;BME280_pressure;Samples;Min_cycle;Max_cycle;Signal;HPM_P1;HPM_P2
2024/01/26 00:00:04;;;;;;;2.37;2.10;;;16.20;61.50;17.20;101605.00;;;;5056915;28;20184;-52
2024/01/26 00:02:30;;;;;;;2.00;1.90;;;16.10;61.40;17.20;101606.00;;;;5049520;28;20180;-51
2024/01/26 00:04:56;;;;;;;2.40;2.20;;;16.10;61.40;17.20;101623.00;;;;5048275;28;20195;-50
2024/01/26 00:07:22;;;;;;;2.30;2.10;;;16.10;61.40;17.20;101609.00;;;;5049404;28;20208;-50
2024/01/26 00:09:47;;;;;;;3.17;2.30;;;16.10;61.40;17.20;101602.00;;;;5047926;28;20192;-50
2024/01/26 00:12:13;;;;;;;2.20;2.00;;;16.10;61.40;17.20;101613.00;;;;5049191;28;20255;-50
2024/01/26 00:14:39;;;;;;;2.60;2.30;;;16.10;61.50;17.20;101612.00;;;;5047539;28;20196;-50
2024/01/26 00:17:05;;;;;;;2.50;2.20;;;16.10;61.40;17.20;101601.00;;;;5049020;28;20210;-50
2024/01/26 00:19:30;;;;;;;2.70;2.20;;;16.10;61.50;17.20;101606.00;;;;5048367;28;20172;-50
2024/01/26 00:21:56;;;;;;;2.40;2.20;;;16.10;61.50;17.20;101598.00;;;;5048154;28;20191;-50
2024/01/26 00:24:22;;;;;;;2.40;2.20;;;16.10;61.50;17.20;101605.00;;;;5048971;28;20180;-50
2024/01/26 00:26:48;;;;;;;2.30;2.10;;;16.10;61.50;17.20;101596.00;;;;5043604;28;20201;-50
2024/01/26 00:29:14;;;;;;;2.03;1.90;;;16.10;61.50;17.20;101604.00;;;;5049974;28;20208;-49
2024/01/26 00:31:39;;;;;;;2.17;1.97;;;16.10;61.50;17.10;101602.00;;;;5048110;28;20183;-51
2024/01/26 00:34:05;;;;;;;2.17;1.97;;;16.10;61.50;17.10;101603.00;;;;5049509;28;20187;-50
2024/01/26 00:36:31;;;;;;;2.00;1.90;;;16.10;61.40;17.10;101596.00;;;;5048185;28;20965;-50
2024/01/26 00:38:56;;;;;;;2.17;1.97;;;16.10;61.50;17.10;101598.00;;;;5048138;28;20191;-51
2024/01/26 00:41:22;;;;;;;2.13;1.93;;;16.10;61.50;17.10;101584.00;;;;5047655;28;20195;-50
2024/01/26 00:43:48;;;;;;;2.40;2.00;;;16.00;61.40;17.10;101592.00;;;;5047268;28;20190;-50
2024/01/26 00:46:13;;;;;;;2.67;2.00;;;16.10;61.50;17.10;101596.00;;;;5048640;28;20211;-50
2024/01/26 00:48:39;;;;;;;2.27;2.00;;;16.00;61.40;17.10;101604.00;;;;5047026;28;20206;-50
2024/01/26 00:51:06;;;;;;;2.37;2.17;;;16.00;61.50;17.10;101581.00;;;;5048713;28;20206;-49
2024/01/26 00:53:32;;;;;;;2.30;2.10;;;16.00;61.60;17.10;101580.00;;;;5046887;28;20189;-50
2024/01/26 00:55:58;;;;;;;2.07;1.93;;;16.00;61.60;17.10;101584.00;;;;5047652;28;20822;-50
2024/01/26 00:58:24;;;;;;;2.83;2.37;;;16.00;61.60;17.10;101576.00;;;;5047237;28;20213;-50
2024/01/26 01:00:49;;;;;;;2.03;1.93;;;16.00;61.60;17.10;101588.00;;;;5046819;28;20189;-50
2024/01/26 01:03:15;;;;;;;2.13;1.93;;;16.00;61.60;17.10;101579.00;;;;5047375;28;20176;-50
2024/01/26 01:05:42;;;;;;;2.20;2.00;;;16.00;61.60;17.10;101573.00;;;;5045764;28;20193;-50
2024/01/26 01:08:08;;;;;;;2.20;2.00;;;16.00;61.60;17.10;101575.00;;;;5047362;28;20272;-50
2024/01/26 01:10:34;;;;;;;2.67;2.10;;;16.00;62.40;17.10;101569.00;;;;5046510;28;20693;-50
2024/01/26 01:12:59;;;;;;;2.30;2.10;;;16.00;62.10;17.00;101578.00;;;;5045978;28;20187;-50
2024/01/26 01:15:25;;;;;;;2.00;1.90;;;15.90;62.00;17.00;101562.00;;;;5047346;28;20270;-50
2024/01/26 01:17:51;;;;;;;2.40;2.10;;;16.00;62.00;17.10;101571.00;;;;5045834;28;20207;-50
2024/01/26 01:20:16;;;;;;;2.33;2.00;;;16.00;62.10;17.10;101557.00;;;;5047591;28;20647;-50
2024/01/26 01:22:43;;;;;;;2.20;2.00;;;16.00;62.10;17.00;101561.00;;;;5045875;28;20698;-50
2024/01/26 01:25:11;;;;;;;1.90;1.80;;;16.00;62.00;17.00;101568.00;;;;5047001;28;20196;-50
2024/01/26 01:27:36;;;;;;;2.10;1.90;;;16.00;62.00;17.00;101561.00;;;;5042562;28;20223;-50
2024/01/26 01:30:04;;;;;;;2.73;2.13;;;16.00;62.00;17.00;101565.00;;;;5033404;28;20721;-50
2024/01/26 01:32:29;;;;;;;2.23;2.03;;;16.00;62.20;17.00;101567.00;;;;5045526;28;20201;-50
2024/01/26 01:34:55;;;;;;;2.20;2.00;;;15.90;62.30;17.00;101570.00;;;;5047356;28;20251;-49
2024/01/26 01:37:21;;;;;;;2.63;2.00;;;15.90;62.30;17.00;101573.00;;;;5054409;28;20229;-51
2024/01/26 01:39:48;;;;;;;2.43;2.00;;;15.90;62.30;17.00;101581.00;;;;5050112;28;20194;-50
2024/01/26 01:42:14;;;;;;;3.20;2.00;;;15.90;62.30;17.00;101586.00;;;;5048013;28;20238;-51
2024/01/26 01:44:46;;;;;;;5.60;2.40;;;15.90;62.10;17.00;101585.00;;;;5045948;28;20669;-51
2024/01/26 01:47:13;;;;;;;2.00;1.90;;;15.90;62.10;17.00;101586.00;;;;5047818;28;20222;-50
2024/01/26 01:49:39;;;;;;;2.20;2.00;;;15.90;62.20;17.00;101583.00;;;;5053863;28;20688;-50
2024/01/26 01:52:09;;;;;;;2.23;2.03;;;15.90;62.10;17.00;101569.00;;;;5050599;28;20191;-50
2024/01/26 01:54:36;;;;;;;2.17;1.93;;;15.90;62.20;17.00;101558.00;;;;5046027;28;20178;-50
2024/01/26 01:57:03;;;;;;;2.27;2.00;;;15.90;62.20;17.00;101558.00;;;;5031789;28;20198;-49
2024/01/26 01:59:32;;;;;;;2.20;2.00;;;15.90;62.30;16.70;101546.00;;;;5046419;28;20172;-51
2024/01/26 02:01:58;;;;;;;2.30;2.10;;;15.90;62.30;17.00;101565.00;;;;5044825;28;20178;-50
2024/01/26 02:04:23;;;;;;;1.90;1.80;;;15.90;62.30;17.00;101569.00;;;;5046551;28;20208;-50
2024/01/26 02:07:03;;;;;;;1.93;1.80;;;15.90;62.30;17.00;101568.00;;;;5045119;28;20717;-50
2024/01/26 02:09:29;;;;;;;2.43;2.13;;;15.90;62.30;16.90;101566.00;;;;5028719;28;20180;-50
2024/01/26 02:11:59;;;;;;;1.97;1.87;;;15.90;62.30;16.90;101550.00;;;;5045379;28;20213;-50
2024/01/26 02:14:25;;;;;;;2.40;2.03;;;15.90;62.30;16.90;101552.00;;;;5046755;28;20229;-50
2024/01/26 02:17:02;;;;;;;2.03;1.93;;;15.90;62.30;16.90;101546.00;;;;5044937;28;20192;-49
2024/01/26 02:19:30;;;;;;;2.10;2.00;;;15.90;62.30;16.90;101542.00;;;;5046463;28;20170;-50
2024/01/26 02:21:56;;;;;;;2.00;1.90;;;15.90;62.30;16.90;101550.00;;;;5045585;28;20306;-50
2024/01/26 02:24:21;;;;;;;2.87;1.83;;;15.90;62.30;16.90;101555.00;;;;5046118;28;20178;-50
2024/01/26 02:26:47;;;;;;;2.20;2.00;;;15.80;62.20;16.90;101548.00;;;;5040195;28;20569;-49
2024/01/26 02:29:13;;;;;;;2.17;2.00;;;15.80;62.20;16.90;101542.00;;;;5046261;28;20695;-53
2024/01/26 02:31:39;;;;;;;2.10;1.90;;;15.80;62.20;16.90;101543.00;;;;5045052;28;20166;-50
2024/01/26 02:34:06;;;;;;;2.00;1.90;;;15.80;62.20;16.90;101539.00;;;;5046442;28;20194;-50
2024/01/26 02:36:34;;;;;;;2.60;2.10;;;15.80;62.20;16.90;101534.00;;;;5045370;28;20198;-50
2024/01/26 02:38:59;;;;;;;2.30;2.03;;;15.80;62.20;16.90;101543.00;;;;5045656;28;20257;-52
2024/01/26 02:41:25;;;;;;;1.97;1.87;;;15.80;62.30;16.90;101523.00;;;;5044789;28;20289;-50
2024/01/26 02:43:51;;;;;;;2.20;2.00;;;15.80;62.20;16.90;101516.00;;;;5048694;28;20172;-50
2024/01/26 02:46:17;;;;;;;2.20;2.00;;;15.80;62.20;16.90;101512.00;;;;5051642;28;20251;-49
2024/01/26 02:48:42;;;;;;;2.30;2.10;;;15.80;62.30;16.90;101507.00;;;;5045507;28;20214;-49
2024/01/26 02:51:08;;;;;;;2.40;2.20;;;15.80;62.30;16.90;101509.00;;;;5045588;28;20247;-50
2024/01/26 02:53:39;;;;;;;2.33;2.00;;;15.80;62.20;16.90;101487.00;;;;5052592;28;20170;-50
2024/01/26 02:56:06;;;;;;;1.87;1.77;;;15.80;62.50;16.90;101503.00;;;;5040101;28;20632;-50
2024/01/26 02:58:31;;;;;;;2.10;1.90;;;15.80;62.30;16.90;101500.00;;;;5051043;28;20180;-49
2024/01/26 03:00:57;;;;;;;2.07;1.93;;;15.80;62.30;16.90;101516.00;;;;5051995;28;20604;-50
2024/01/26 03:03:23;;;;;;;2.00;1.90;;;15.80;62.30;16.90;101506.00;;;;5052821;28;20176;-50
2024/01/26 03:05:49;;;;;;;2.27;2.07;;;15.80;62.40;16.90;101502.00;;;;5051090;28;20213;-51
2024/01/26 03:08:15;;;;;;;2.20;2.00;;;15.80;62.40;16.90;101514.00;;;;5052473;28;20313;-50
2024/01/26 03:10:40;;;;;;;2.67;2.00;;;15.80;62.30;16.90;101510.00;;;;5045036;28;20186;-50
2024/01/26 03:13:06;;;;;;;2.03;1.93;;;15.80;62.30;16.90;101507.00;;;;5052839;28;20196;-49
2024/01/26 03:15:32;;;;;;;2.47;2.10;;;15.80;62.30;16.90;101508.00;;;;5051725;28;20170;-50
2024/01/26 03:17:57;;;;;;;2.80;2.00;;;15.80;62.60;16.80;101498.00;;;;5043798;28;20566;-50
2024/01/26 03:20:23;;;;;;;2.13;1.93;;;15.80;62.70;16.90;101506.00;;;;5052306;28;20176;-49
2024/01/26 03:22:49;;;;;;;2.17;1.97;;;15.80;62.70;16.80;101504.00;;;;5051077;28;20189;-49
2024/01/26 03:25:15;;;;;;;2.20;2.00;;;15.70;62.60;16.80;101510.00;;;;5055710;28;20190;-50
2024/01/26 03:27:40;;;;;;;2.13;2.00;;;15.80;62.70;16.80;101515.00;;;;5057839;28;20692;-50
2024/01/26 03:30:08;;;;;;;2.10;1.90;;;15.80;62.60;16.80;101509.00;;;;5052989;28;20166;-50
2024/01/26 03:32:34;;;;;;;2.00;1.90;;;15.80;62.70;16.80;101508.00;;;;5052348;28;20171;-50
2024/01/26 03:34:59;;;;;;;2.07;1.90;;;15.70;62.60;16.80;101503.00;;;;5052681;28;20176;-51
2024/01/26 03:37:25;;;;;;;1.80;1.70;;;15.80;62.70;16.80;101497.00;;;;5052185;28;20199;-49
2024/01/26 03:39:51;;;;;;;1.83;1.73;;;15.70;62.60;16.80;101509.00;;;;5061600;28;20175;-50
2024/01/26 03:42:17;;;;;;;2.10;1.90;;;15.70;62.50;16.80;101508.00;;;;5054586;28;20192;-49
2024/01/26 03:44:42;;;;;;;1.97;1.87;;;15.70;62.60;16.80;101516.00;;;;5051261;28;20292;-50
2024/01/26 03:47:09;;;;;;;2.13;2.03;;;15.70;62.60;16.80;101500.00;;;;5051410;28;20195;-50
2024/01/26 03:49:35;;;;;;;1.80;1.70;;;15.70;62.50;16.80;101503.00;;;;5051827;28;20743;-50
2024/01/26 03:52:03;;;;;;;2.20;2.00;;;15.70;62.50;16.80;101492.00;;;;5052376;28;20171;-50
2024/01/26 03:54:29;;;;;;;2.00;1.90;;;15.70;62.60;16.80;101499.00;;;;5052286;28;20180;-51
2024/01/26 03:56:55;;;;;;;2.17;1.97;;;15.70;62.60;16.80;101491.00;;;;5051256;28;20313;-51
2024/01/26 03:59:20;;;;;;;2.00;1.90;;;15.70;62.60;16.80;101487.00;;;;5051056;28;20675;-51
2024/01/26 04:01:46;;;;;;;2.20;2.00;;;15.70;62.70;16.80;101488.00;;;;5048102;28;20181;-50
2024/01/26 04:04:12;;;;;;;1.90;1.80;;;15.70;62.60;16.80;101491.00;;;;5049871;28;20199;-51
2024/01/26 04:06:40;;;;;;;2.00;1.90;;;15.70;62.70;16.80;101480.00;;;;5046904;28;20738;-51
2024/01/26 04:09:06;;;;;;;2.00;1.90;;;15.70;62.70;16.80;101463.00;;;;5049766;28;20212;-50
2024/01/26 04:11:32;;;;;;;2.00;1.90;;;15.70;62.70;16.80;101462.00;;;;5049280;28;20224;-50
2024/01/26 04:13:57;;;;;;;2.07;1.97;;;15.70;62.70;16.80;101461.00;;;;5048981;28;20696;-50
2024/01/26 04:16:23;;;;;;;1.97;1.77;;;15.70;62.60;16.80;101461.00;;;;5049429;28;20861;-50
2024/01/26 04:18:49;;;;;;;2.10;1.90;;;15.70;62.60;16.80;101451.00;;;;5048541;28;20188;-50
2024/01/26 04:21:14;;;;;;;1.90;1.80;;;15.70;62.60;16.80;101447.00;;;;5049553;28;20253;-49
2024/01/26 04:23:40;;;;;;;2.30;2.10;;;15.70;62.70;16.80;101435.00;;;;5048392;28;20572;-49
2024/01/26 04:26:06;;;;;;;2.03;1.90;;;15.70;62.70;16.80;101428.00;;;;5048867;28;20191;-50
2024/01/26 04:28:32;;;;;;;2.20;1.90;;;15.60;62.60;16.70;101428.00;;;;5032890;28;20206;-48
2024/01/26 04:30:58;;;;;;;2.13;1.93;;;15.60;63.50;16.70;101425.00;;;;5048578;28;20692;-50
2024/01/26 04:33:23;;;;;;;1.90;1.80;;;15.60;62.90;16.70;101431.00;;;;5049392;28;20171;-50
2024/01/26 04:35:49;;;;;;;4.13;1.97;;;15.60;63.00;16.70;101434.00;;;;5040509;28;20184;-49
2024/01/26 04:38:15;;;;;;;2.00;1.90;;;15.70;63.30;16.70;101419.00;;;;5047513;28;20606;-50
2024/01/26 04:40:41;;;;;;;3.50;2.00;;;15.70;63.30;16.70;101415.00;;;;5039218;28;20208;-50
2024/01/26 04:43:07;;;;;;;1.90;1.80;;;15.60;63.40;16.70;101411.00;;;;5049050;28;20182;-50
2024/01/26 04:45:32;;;;;;;3.40;1.90;;;15.60;63.50;16.70;101410.00;;;;5048353;28;20208;-50
2024/01/26 04:47:58;;;;;;;2.37;1.90;;;15.60;63.70;16.70;101415.00;;;;5048632;28;20202;-49
2024/01/26 04:50:24;;;;;;;4.73;1.60;;;15.60;63.90;16.70;101415.00;;;;5049758;28;20171;-55
2024/01/26 04:52:52;;;;;;;2.00;1.80;;;15.60;63.80;16.70;101411.00;;;;5047491;28;20708;-51
2024/01/26 04:55:26;;;;;;;2.50;1.90;;;15.60;63.90;16.70;101403.00;;;;5055284;28;20177;-51
2024/01/26 04:57:51;;;;;;;2.83;1.77;;;15.60;63.80;16.70;101399.00;;;;5050597;28;20194;-50
2024/01/26 05:00:20;;;;;;;2.00;1.80;;;15.60;63.70;16.70;101397.00;;;;5049182;28;20183;-50
2024/01/26 05:02:46;;;;;;;1.77;1.67;;;15.60;63.70;16.70;101401.00;;;;5047602;28;20178;-50
2024/01/26 05:05:12;;;;;;;2.07;1.80;;;15.60;63.70;16.70;101395.00;;;;5031555;28;20179;-50
2024/01/26 05:07:38;;;;;;;2.10;1.90;;;15.60;63.60;16.70;101386.00;;;;5039813;28;20263;-50
2024/01/26 05:10:05;;;;;;;1.70;1.60;;;15.60;63.70;16.70;101393.00;;;;5043176;28;20183;-50
2024/01/26 05:12:31;;;;;;;1.60;1.50;;;15.60;63.60;16.70;101397.00;;;;5046232;28;20253;-50
2024/01/26 05:14:57;;;;;;;1.90;1.80;;;15.60;63.60;16.70;101386.00;;;;5049072;28;20227;-50
2024/01/26 05:17:23;;;;;;;2.10;1.90;;;15.60;63.50;16.70;101387.00;;;;5056589;28;20269;-50
2024/01/26 05:19:49;;;;;;;2.10;1.70;;;15.60;63.50;16.70;101374.00;;;;5047742;28;20672;-50
2024/01/26 05:22:14;;;;;;;1.77;1.67;;;15.60;63.50;16.70;101381.00;;;;5044798;28;20170;-51
2024/01/26 05:24:40;;;;;;;1.90;1.80;;;15.60;63.40;16.70;101363.00;;;;5044207;28;20182;-51
2024/01/26 05:27:07;;;;;;;2.27;1.60;;;15.60;63.50;16.70;101377.00;;;;5045165;28;20190;-49
2024/01/26 05:29:33;;;;;;;1.70;1.60;;;15.60;63.70;16.70;101382.00;;;;5054043;28;20639;-49
2024/01/26 05:31:59;;;;;;;1.93;1.83;;;15.60;63.60;16.70;101376.00;;;;5053916;28;20660;-50
2024/01/26 05:34:24;;;;;;;1.80;1.70;;;15.60;63.80;16.70;101344.00;;;;5044142;28;20170;-50
2024/01/26 05:36:50;;;;;;;3.33;1.87;;;15.60;63.80;16.70;101365.00;;;;5045335;28;20202;-49
2024/01/26 05:39:16;;;;;;;1.80;1.60;;;15.60;63.80;16.70;101369.00;;;;5039182;28;20174;-51
2024/01/26 05:41:42;;;;;;;2.47;1.80;;;15.60;63.70;16.70;101376.00;;;;5043030;28;20222;-50
2024/01/26 05:44:07;;;;;;;2.83;1.90;;;15.60;63.80;16.70;101370.00;;;;5037009;28;20183;-50
2024/01/26 05:46:33;;;;;;;3.63;1.90;;;15.60;63.70;16.60;101358.00;;;;5043770;28;20198;-50
2024/01/26 05:48:59;;;;;;;2.33;1.63;;;15.60;63.70;16.60;101360.00;;;;5047417;28;20209;-50
2024/01/26 05:51:25;;;;;;;1.90;1.80;;;15.60;63.70;16.60;101358.00;;;;5029626;28;20197;-50
2024/01/26 05:53:52;;;;;;;1.90;1.70;;;15.50;63.70;16.70;101345.00;;;;5046009;28;20183;-50
2024/01/26 05:56:18;;;;;;;3.23;1.80;;;15.60;63.90;16.60;101346.00;;;;5047287;28;20628;-49
2024/01/26 05:58:44;;;;;;;2.80;1.90;;;15.50;64.00;16.60;101331.00;;;;5046831;28;20214;-49
2024/01/26 06:01:10;;;;;;;2.03;1.67;;;15.50;63.90;16.60;101343.00;;;;5046584;28;20270;-51
2024/01/26 06:03:35;;;;;;;2.97;2.10;;;15.50;64.10;16.60;101344.00;;;;5045602;28;20729;-50
2024/01/26 06:06:01;;;;;;;3.80;1.73;;;15.50;64.10;16.60;101334.00;;;;5043762;28;20186;-51
2024/01/26 06:08:27;;;;;;;4.53;2.00;;;15.50;64.00;16.60;101332.00;;;;5043863;28;20673;-50
2024/01/26 06:10:55;;;;;;;2.87;1.90;;;15.50;63.90;16.60;101326.00;;;;5046643;28;20225;-51
2024/01/26 06:13:21;;;;;;;1.73;1.43;;;15.50;64.00;16.60;101295.00;;;;5045878;28;20210;-51
2024/01/26 06:15:47;;;;;;;2.77;1.70;;;15.50;63.90;16.60;101296.00;;;;5044391;28;20206;-50
2024/01/26 06:18:12;;;;;;;2.27;1.67;;;15.50;63.90;16.60;101298.00;;;;5039043;28;20218;-50
2024/01/26 06:20:39;;;;;;;4.27;1.73;;;15.50;63.90;16.60;101301.00;;;;5030157;28;20187;-50
2024/01/26 06:23:04;;;;;;;1.83;1.50;;;15.50;64.10;16.60;101297.00;;;;5032582;28;20203;-51
2024/01/26 06:25:30;;;;;;;3.27;1.73;;;15.50;64.00;16.60;101299.00;;;;5034465;28;20202;-50
2024/01/26 06:27:57;;;;;;;1.70;1.60;;;15.50;63.90;16.60;101295.00;;;;5038444;28;20939;-50
2024/01/26 06:30:23;;;;;;;2.07;1.50;;;15.50;64.10;16.60;101289.00;;;;5041436;28;20166;-50
2024/01/26 06:32:48;;;;;;;1.80;1.70;;;15.50;64.00;16.60;101283.00;;;;5043734;28;20182;-51
2024/01/26 06:35:14;;;;;;;1.80;1.70;;;15.50;63.90;16.60;101285.00;;;;5045575;28;20249;-51
2024/01/26 06:37:40;;;;;;;3.00;1.33;;;15.50;63.90;16.60;101270.00;;;;5044465;28;20205;-50
2024/01/26 06:40:10;;;;;;;1.53;1.40;;;15.50;63.90;16.60;101272.00;;;;5037833;28;20214;-51
2024/01/26 06:42:42;;;;;;;2.50;1.60;;;15.50;63.90;16.60;101262.00;;;;5034130;28;20284;-50
2024/01/26 06:45:09;;;;;;;1.60;1.50;;;15.50;63.80;16.60;101267.00;;;;5034756;28;20186;-50
2024/01/26 06:47:35;;;;;;;1.43;1.33;;;15.50;63.80;16.60;101265.00;;;;5044449;28;20700;-51
2024/01/26 06:50:01;;;;;;;1.70;1.60;;;15.40;63.70;16.60;101258.00;;;;5046094;28;20174;-50
2024/01/26 06:52:28;;;;;;;1.57;1.47;;;15.50;63.90;16.60;101271.00;;;;5044803;28;20186;-51
2024/01/26 06:54:54;;;;;;;2.13;1.47;;;15.50;63.70;16.60;101269.00;;;;5045351;28;20189;-50
2024/01/26 06:57:20;;;;;;;1.60;1.50;;;15.40;63.70;16.60;101252.00;;;;5045884;28;20197;-50
2024/01/26 06:59:45;;;;;;;1.77;1.53;;;15.40;63.70;16.60;101252.00;;;;5035970;28;20196;-51
2024/01/26 07:02:11;;;;;;;1.90;1.70;;;15.40;63.80;16.60;101261.00;;;;5038535;28;20178;-52
2024/01/26 07:04:37;;;;;;;1.60;1.50;;;15.40;63.70;16.60;101262.00;;;;5029403;28;20191;-51
2024/01/26 07:07:03;;;;;;;1.93;1.30;;;15.40;63.60;16.60;101252.00;;;;5033305;28;20312;-50
2024/01/26 07:09:28;;;;;;;1.70;1.43;;;15.40;63.70;16.60;101251.00;;;;5046392;28;20198;-49
2024/01/26 07:11:54;;;;;;;2.53;1.40;;;15.40;63.60;16.60;101247.00;;;;5034202;28;20171;-50
2024/01/26 07:14:20;;;;;;;2.50;1.60;;;15.40;63.60;16.50;101243.00;;;;5039551;28;20178;-51
2024/01/26 07:16:49;;;;;;;1.60;1.40;;;15.40;63.60;16.50;101231.00;;;;5045525;28;20231;-50
2024/01/26 07:19:15;;;;;;;1.37;1.27;;;15.40;63.60;16.50;101236.00;;;;5048001;28;20599;-50
2024/01/26 07:21:41;;;;;;;1.50;1.40;;;15.40;63.60;16.50;101227.00;;;;5053330;28;20205;-50
2024/01/26 07:24:06;;;;;;;1.53;1.43;;;15.40;63.60;16.50;101236.00;;;;5047297;28;20561;-50
2024/01/26 07:26:32;;;;;;;1.30;1.20;;;15.40;63.60;16.50;101233.00;;;;5041456;28;20207;-51
2024/01/26 07:28:58;;;;;;;1.47;1.37;;;15.40;63.60;16.50;101236.00;;;;5041344;28;20218;-50
2024/01/26 07:31:23;;;;;;;1.60;1.50;;;15.40;63.60;16.50;101254.00;;;;5039398;28;20186;-50
2024/01/26 07:33:49;;;;;;;1.40;1.30;;;15.40;63.60;16.50;101229.00;;;;5040892;28;20176;-50
2024/01/26 07:36:16;;;;;;;1.33;1.23;;;15.40;63.60;16.50;101233.00;;;;5039596;28;20198;-51
2024/01/26 07:38:42;;;;;;;1.40;1.30;;;15.40;64.10;16.50;101224.00;;;;5049732;28;20183;-52
2024/01/26 07:41:07;;;;;;;1.33;1.27;;;15.40;63.90;16.50;101224.00;;;;5045154;28;20193;-52
2024/01/26 07:43:33;;;;;;;1.47;1.37;;;15.40;63.80;16.50;101232.00;;;;5050684;28;20182;-50
2024/01/26 07:45:59;;;;;;;2.60;1.40;;;15.40;63.70;16.50;101230.00;;;;5049805;28;20592;-51
2024/01/26 07:48:24;;;;;;;2.17;1.30;;;15.40;63.80;16.50;101235.00;;;;5050645;28;20199;-50
2024/01/26 07:50:51;;;;;;;1.63;1.23;;;15.40;63.70;16.50;101232.00;;;;5047962;28;20189;-51
2024/01/26 07:53:17;;;;;;;1.27;1.20;;;15.40;63.70;16.50;101237.00;;;;5050828;28;20227;-51
2024/01/26 07:55:42;;;;;;;1.20;1.10;;;15.40;63.70;16.50;101234.00;;;;5041676;28;20178;-50
2024/01/26 07:58:08;;;;;;;1.40;1.10;;;15.40;63.70;16.50;101240.00;;;;5035560;28;20873;-50
2024/01/26 08:00:34;;;;;;;1.23;1.13;;;15.40;63.70;16.50;101234.00;;;;5045163;28;20230;-51
2024/01/26 08:03:00;;;;;;;1.40;1.30;;;15.40;63.80;16.50;101238.00;;;;5041033;28;20183;-50
2024/01/26 08:05:25;;;;;;;1.40;1.30;;;15.40;64.50;16.50;101245.00;;;;5048334;28;20268;-51
2024/01/26 08:07:51;;;;;;;3.67;1.50;;;15.40;64.30;16.50;101237.00;;;;5041534;28;20226;-50
2024/01/26 08:10:17;;;;;;;2.00;1.80;;;15.30;64.30;16.50;101242.00;;;;5008965;28;20218;-51
2024/01/26 08:12:44;;;;;;;2.07;1.30;;;15.30;64.10;16.50;101249.00;;;;5037206;28;20571;-50
2024/01/26 08:15:10;;;;;;;3.47;1.40;;;15.40;64.20;16.50;101254.00;;;;5049078;28;20170;-51
2024/01/26 08:17:37;;;;;;;1.30;1.20;;;15.40;64.50;16.50;101247.00;;;;5044053;28;20696;-49
2024/01/26 08:20:03;;;;;;;3.40;1.60;;;15.30;64.50;16.50;101242.00;;;;5040797;28;20632;-50
2024/01/26 08:22:29;;;;;;;3.20;1.70;;;15.40;64.60;16.50;101235.00;;;;5049408;28;20197;-50
2024/01/26 08:24:58;;;;;;;2.37;1.50;;;15.40;64.50;16.50;101237.00;;;;5048399;28;20175;-50
2024/01/26 08:27:25;;;;;;;2.87;1.33;;;15.50;64.60;16.50;101228.00;;;;5045021;28;20206;-50
2024/01/26 08:29:51;;;;;;;1.63;1.50;;;15.60;64.70;16.50;101227.00;;;;5048656;28;20185;-50
2024/01/26 08:32:16;;;;;;;1.53;1.40;;;15.80;64.70;16.60;101222.00;;;;5040995;28;20555;-50
2024/01/26 08:34:42;;;;;;;2.50;1.60;;;15.90;64.30;16.60;101209.00;;;;5048109;28;20178;-49
2024/01/26 08:37:08;;;;;;;1.90;1.60;;;16.00;64.10;16.70;101204.00;;;;5042051;28;20260;-51
2024/01/26 08:39:34;;;;;;;2.40;1.43;;;16.10;63.80;16.80;101215.00;;;;5041261;28;20274;-51
2024/01/26 08:42:00;;;;;;;1.43;1.33;;;16.30;63.60;16.90;101225.00;;;;5042899;28;20194;-50
2024/01/26 08:44:26;;;;;;;1.70;1.57;;;16.40;63.40;17.00;101221.00;;;;5049145;28;20686;-50
2024/01/26 08:46:51;;;;;;;1.83;1.40;;;16.60;63.20;17.10;101229.00;;;;5047951;28;20213;-50
2024/01/26 08:49:17;;;;;;;1.70;1.20;;;16.70;63.10;17.20;101240.00;;;;5049459;28;20256;-50
2024/01/26 08:51:43;;;;;;;1.43;1.33;;;16.90;62.70;17.30;101238.00;;;;5048691;28;20596;-49
2024/01/26 08:54:10;;;;;;;4.40;1.50;;;17.00;62.50;17.40;101226.00;;;;5049099;28;20170;-50
2024/01/26 08:56:41;;;;;;;4.33;1.57;;;17.20;62.70;17.50;101239.00;;;;5050755;28;20201;-51
2024/01/26 08:59:07;;;;;;;2.07;1.40;;;17.30;62.50;17.60;101241.00;;;;5042684;28;20187;-50
2024/01/26 09:01:36;;;;;;;5.03;1.60;;;17.50;62.30;17.70;101236.00;;;;5049179;28;20298;-50
2024/01/26 09:04:05;;;;;;;7.23;2.00;;;17.60;62.40;17.90;101252.00;;;;5032967;28;20221;-50
2024/01/26 09:06:32;;;;;;;6.13;1.70;;;17.70;62.70;18.00;101249.00;;;;5044340;28;20233;-49
2024/01/26 09:08:57;;;;;;;3.93;1.80;;;17.80;62.90;18.00;101249.00;;;;5047056;28;20266;-49
2024/01/26 09:11:23;;;;;;;4.73;1.70;;;17.80;63.00;18.10;101259.00;;;;5052055;28;20189;-50
2024/01/26 09:13:49;;;;;;;4.53;1.80;;;17.90;63.00;18.20;101251.00;;;;5040264;28;20213;-49
2024/01/26 09:16:15;;;;;;;4.97;1.80;;;17.90;63.10;18.30;101258.00;;;;5048654;28;20186;-49
2024/01/26 09:18:40;;;;;;;2.60;1.60;;;18.00;63.00;18.30;101254.00;;;;5046936;28;20204;-50
2024/01/26 09:21:10;;;;;;;2.73;1.70;;;18.10;62.90;18.40;101263.00;;;;5048646;28;20789;-50
2024/01/26 09:23:37;;;;;;;4.47;1.70;;;18.10;62.80;18.50;101264.00;;;;5046214;28;20272;-50
2024/01/26 09:26:02;;;;;;;4.00;1.87;;;18.20;62.90;18.50;101273.00;;;;5033858;28;20718;-49
2024/01/26 09:28:28;;;;;;;3.80;1.57;;;18.20;63.00;18.50;101273.00;;;;5043656;28;20283;-49
2024/01/26 09:30:54;;;;;;;6.83;2.00;;;18.10;63.00;18.60;101266.00;;;;5048010;28;20178;-50
2024/01/26 09:33:20;;;;;;;3.93;2.00;;;18.10;63.10;18.60;101264.00;;;;5049138;28;20177;-50
2024/01/26 09:35:46;;;;;;;4.10;1.90;;;18.10;63.10;18.60;101258.00;;;;5046439;28;20268;-50
2024/01/26 09:38:12;;;;;;;6.67;1.87;;;18.10;63.20;18.60;101253.00;;;;5048736;28;20640;-50
2024/01/26 09:40:39;;;;;;;2.53;1.77;;;18.10;63.30;18.60;101220.00;;;;5046304;28;20192;-50
2024/01/26 09:43:06;;;;;;;2.47;1.50;;;18.10;64.10;18.60;101243.00;;;;5047548;28;20201;-50
2024/01/26 09:45:32;;;;;;;2.33;1.70;;;18.10;63.50;18.60;101256.00;;;;5047309;28;20185;-50
2024/01/26 09:47:58;;;;;;;3.50;1.70;;;18.10;63.50;18.60;101256.00;;;;5047727;28;20300;-50
2024/01/26 09:50:25;;;;;;;1.80;1.37;;;18.00;64.20;18.60;101261.00;;;;5048504;28;20272;-50
2024/01/26 09:52:52;;;;;;;1.70;1.60;;;18.00;63.50;18.60;101254.00;;;;5046348;28;20652;-50
2024/01/26 09:55:18;;;;;;;2.93;1.60;;;18.00;63.50;18.60;101256.00;;;;5047142;28;20232;-50
2024/01/26 09:57:45;;;;;;;2.70;1.60;;;18.00;63.60;18.60;101245.00;;;;5046461;28;20206;-51
2024/01/26 10:00:12;;;;;;;1.57;1.47;;;18.00;63.70;18.60;101255.00;;;;5048207;28;20213;-50
2024/01/26 10:02:38;;;;;;;2.57;1.60;;;17.90;63.70;18.60;101245.00;;;;5047491;28;20178;-50
2024/01/26 10:05:05;;;;;;;1.57;1.47;;;17.90;63.80;18.60;101245.00;;;;5048322;28;20285;-49
2024/01/26 10:07:31;;;;;;;1.57;1.43;;;17.90;63.80;18.60;101242.00;;;;5048477;28;20613;-49
2024/01/26 10:09:56;;;;;;;2.43;1.50;;;17.90;63.80;18.60;101246.00;;;;5047889;28;20179;-50
2024/01/26 10:12:23;;;;;;;1.43;1.33;;;17.80;63.80;18.60;101241.00;;;;5048430;28;20174;-50
2024/01/26 10:14:49;;;;;;;1.60;1.50;;;17.80;63.90;18.60;101252.00;;;;5047497;28;20197;-50
2024/01/26 10:17:18;;;;;;;1.50;1.30;;;17.80;63.90;18.50;101251.00;;;;5048377;28;20193;-50
2024/01/26 10:19:43;;;;;;;2.50;1.50;;;17.80;63.90;18.50;101251.00;;;;5047462;28;20424;-50
2024/01/26 10:22:09;;;;;;;1.40;1.30;;;17.70;63.80;18.50;101249.00;;;;5048088;28;20174;-50
2024/01/26 10:24:35;;;;;;;1.77;1.30;;;17.70;63.90;18.50;101250.00;;;;5046450;28;20177;-51
2024/01/26 10:27:01;;;;;;;1.23;1.13;;;17.70;64.10;18.50;101250.00;;;;5043693;28;20285;-50
2024/01/26 10:29:27;;;;;;;2.50;1.60;;;17.70;64.00;18.50;101261.00;;;;5048117;28;20205;-49
2024/01/26 10:31:53;;;;;;;3.10;1.47;;;17.70;64.10;18.50;101247.00;;;;5047580;28;20182;-50
2024/01/26 10:34:19;;;;;;;2.60;1.27;;;17.70;64.10;18.50;101248.00;;;;5048266;28;20189;-49
2024/01/26 10:36:48;;;;;;;2.10;1.40;;;17.60;64.10;18.50;101251.00;;;;5047001;28;20209;-51
2024/01/26 10:39:22;;;;;;;1.23;1.13;;;17.60;64.10;18.40;101246.00;;;;5048400;28;20205;-50
2024/01/26 10:41:49;;;;;;;1.47;1.37;;;17.60;64.10;18.40;101234.00;;;;5046225;28;20194;-50